Archival Weather

Alykel

Alykel, Russia (UOOO)

Report from: Tuesday, November 21, 2023 6:00 PM UTC
Current time: Friday, July 19, 2024 2:49 AM UTC

Current weather – Weather history – Daily summaries
Weather forecast

Present weatherLight snow, drifting snow
Temperature-26.0°C (-14.8°F)
Wind chill-38.5°C (-37.2°F)
Dew point-29.0°C (-20.2°F)
Winds 11.7 kts (6 m/s, 13.4 mph) South (190°)
Visibility6.2 mi. (10 km)
Clouds Ceiling: Overcast 1,500 ft. (457 m)
Altimeter30.36 in.Hg (1028 mB)
Precip. events QF 5:34 AM
Relative humidity76 %
Density altitude-5,827 ft. (-1,776 m)
Remarks No significant changes expected in the next two hours
Flight conditions Marginal Visual Meteorological Conditions
Raw dataUOOO 211800Z 19006MPS 9999 -SN DRSN OVC015 M26/M29 Q1028 R19/35//60 NOSIG RMK QFE754/1006
An error has occurred. This application may no longer respond until reloaded. Reload 🗙